Airfield :
LOGIN :

Register | Disclaimer

   EN    FR    IT 

 










Legend :    VFR   Marginal VFR   IFR   Intensive IFR   Very Intensive IFR
Visi :
Ceiling :
>= 8 km
>= 3000ft
5 to 8 km
1000 to 3000 ft
1500m to 5 km
500 to 1000 ft
800 to 1500m
200 to 500 ft
< 800m
< 200 ft
Symbols :   Thunderstorms  Fog  Heavy snow  Heavy precipitations  Wind > 20 kt
SIGMETs :     Misc.  Thunderstorms  Icing  Turbulence  Mountain Waves  Volcanic Ashes







- Airport Elevation : 291 ft
- IATA code : ORY
- Download approach charts


LFPO - Paris-Orly

CURRENT METAR :
  • 200900Z 21006KT 8000 BKN005 06/05 Q1023 NOSIG

EXPIRED METARs :
  • 200830Z 21007KT 190V250 6000 BKN005 06/05 Q1023 NOSIG
  • 200800Z 22007KT 190V250 6000 BKN005 SCT040 06/04 Q1023 NOSIG
  • 200730Z 22008KT 180V250 6000 BKN005 SCT035 05/04 Q1023 NOSIG
  • 200700Z 23007KT 8000 BKN005 SCT035 05/04 Q1023 NOSIG
  • 200630Z 21008KT 8000 BKN003 SCT038 05/04 Q1023 NOSIG

TAF TAF LFPO
Valid from the 20 at 06:00 until the 21 at 12:00 UTC


200500Z 2006/2112 24006KT 9999 BKN030
TEMPO 2006/2010 4000 BR BKN003
PROB30
TEMPO 2006/2009 0600 FG VV///
BECMG 2010/2012 20010KT OVC013
TEMPO 2011/2015 BKN004
TEMPO 2016/2020 SCT014
BECMG 2021/2023 BKN008
TEMPO 2100/2112 OVC004
PROB30
TEMPO 2105/2112 6000 OVC002
ATIS : +33 1 49 75 65 80
No reported NOTAMs for that airfield.



MET'MAP, your aeronautical weather chart ! - Copyright ORBIFLY December 2007 - Disclaimer

ORBIFLY MET'MAP TEAM :

Programming & Development : Alexandra Zaïnal
Concept & Development : Baudouin d'Aumeries
Co-Development & Prog : Marc-Olivier Méhu
Technical & hardware support : Manuel Goepfert

Contact : metmap@orbifly.com




SOURCES & CREDITS :

   NOAA